createdAt,value
2019-03-05T00:00:32.552Z,1.00
2019-03-05T00:03:02.935Z,1.00
2019-03-05T00:05:33.407Z,1.00
2019-03-05T00:08:03.771Z,1.00
2019-03-05T00:10:34.156Z,1.00
2019-03-05T00:13:04.524Z,1.00
2019-03-05T00:15:34.904Z,1.00
2019-03-05T00:18:05.461Z,1.00
2019-03-05T00:20:35.946Z,1.00
2019-03-05T00:23:08.258Z,1.00
2019-03-05T00:25:38.560Z,1.00
2019-03-05T00:28:45.051Z,1.00
2019-03-05T00:31:24.088Z,1.00
2019-03-05T00:34:16.387Z,1.00
2019-03-05T00:36:51.422Z,1.00
2019-03-05T00:40:04.167Z,1.00
2019-03-05T00:43:02.940Z,9.00
2019-03-05T00:46:14.353Z,24.20
2019-03-05T00:49:16.170Z,32.70
2019-03-05T00:52:23.357Z,24.80
2019-03-05T00:55:25.034Z,26.00
2019-03-05T00:58:16.376Z,21.10
2019-03-05T01:01:08.983Z,14.10
2019-03-05T01:03:56.041Z,29.70
2019-03-05T01:06:27.537Z,28.70
2019-03-05T01:08:58.214Z,34.70
2019-03-05T01:11:28.690Z,43.10
2019-03-05T01:13:59.083Z,60.40
2019-03-05T01:16:32.406Z,56.70
2019-03-05T01:19:02.841Z,63.10
2019-03-05T01:21:33.332Z,66.90
2019-03-05T01:24:03.692Z,79.30
2019-03-05T01:26:34.234Z,82.50
2019-03-05T01:29:04.693Z,86.20
2019-03-05T01:31:42.149Z,80.60
2019-03-05T01:34:23.279Z,82.50
2019-03-05T01:36:56.557Z,80.80
2019-03-05T01:39:32.518Z,90.80
2019-03-05T01:42:03.188Z,90.20
2019-03-05T01:44:33.553Z,92.40
2019-03-05T01:47:03.903Z,97.30
2019-03-05T01:49:34.266Z,93.30
2019-03-05T01:52:04.749Z,88.80
2019-03-05T01:54:35.135Z,90.10
2019-03-05T01:57:05.481Z,92.30
2019-03-05T01:59:35.846Z,92.90
2019-03-05T02:02:06.186Z,92.30
2019-03-05T02:04:36.546Z,91.60
2019-03-05T02:07:07.010Z,83.50
2019-03-05T02:09:37.386Z,78.00
2019-03-05T02:12:07.725Z,77.60
2019-03-05T02:14:38.089Z,69.90
2019-03-05T02:17:08.437Z,73.00
2019-03-05T02:19:46.844Z,74.10
2019-03-05T02:22:39.005Z,71.80
2019-03-05T02:25:12.890Z,67.50
2019-03-05T02:28:20.189Z,63.10
2019-03-05T02:31:08.402Z,56.50
2019-03-05T02:34:09.004Z,58.40
2019-03-05T02:37:04.825Z,66.20
2019-03-05T02:40:18.581Z,82.50
2019-03-05T02:42:55.150Z,69.90
2019-03-05T02:45:51.690Z,57.50
2019-03-05T02:48:48.903Z,54.80
2019-03-05T02:51:44.028Z,66.80
2019-03-05T02:54:36.277Z,72.50
2019-03-05T02:57:08.766Z,68.00
2019-03-05T02:59:39.447Z,63.50
2019-03-05T03:02:29.278Z,62.80
2019-03-05T03:05:19.414Z,80.10
2019-03-05T03:07:49.804Z,85.10
2019-03-05T03:10:25.106Z,94.30
2019-03-05T03:12:55.823Z,94.60
2019-03-05T03:15:26.166Z,94.90
2019-03-05T03:17:57.605Z,96.50
2019-03-05T03:20:27.965Z,99.90
2019-03-05T03:22:58.305Z,95.00
2019-03-05T03:25:28.639Z,93.00
2019-03-05T03:27:58.994Z,97.50
2019-03-05T03:30:29.727Z,97.30
2019-03-05T03:33:00.097Z,93.90
2019-03-05T03:35:30.516Z,98.80
2019-03-05T03:38:00.998Z,98.70
2019-03-05T03:40:31.429Z,99.90
2019-03-05T03:43:01.859Z,99.90
2019-03-05T03:45:32.224Z,99.90
2019-03-05T03:48:02.578Z,99.90
2019-03-05T03:50:32.934Z,99.90
2019-03-05T03:53:03.307Z,99.90
2019-03-05T03:55:33.742Z,99.30
2019-03-05T03:58:04.216Z,99.90
2019-03-05T04:00:34.570Z,99.90
2019-03-05T04:03:05.142Z,99.90
2019-03-05T04:05:35.595Z,99.90
2019-03-05T04:08:05.985Z,99.90
2019-03-05T04:10:36.343Z,99.90
2019-03-05T04:13:06.724Z,99.90
2019-03-05T04:15:37.768Z,99.30
2019-03-05T04:18:08.138Z,99.90
2019-03-05T04:20:57.438Z,97.10
2019-03-05T04:23:27.866Z,96.90
2019-03-05T04:25:58.231Z,89.60
2019-03-05T04:28:28.585Z,92.60
2019-03-05T04:30:59.019Z,94.30
2019-03-05T04:33:29.354Z,94.70
2019-03-05T04:35:59.779Z,95.00
2019-03-05T04:38:30.126Z,92.30
2019-03-05T04:41:00.490Z,93.30
2019-03-05T04:43:30.821Z,94.20
2019-03-05T04:46:19.093Z,90.10
2019-03-05T04:49:10.146Z,85.00
2019-03-05T04:51:48.801Z,86.30
2019-03-05T04:54:19.185Z,91.20
2019-03-05T04:56:49.527Z,94.10
2019-03-05T04:59:19.924Z,82.40
2019-03-05T05:01:50.270Z,80.30
2019-03-05T05:04:20.664Z,82.70
2019-03-05T05:06:51.007Z,81.30
2019-03-05T05:09:21.329Z,70.10
2019-03-05T05:11:51.748Z,71.90
2019-03-05T05:14:22.091Z,84.30
2019-03-05T05:16:52.438Z,77.00
2019-03-05T05:19:22.777Z,78.30
2019-03-05T05:21:53.136Z,62.80
2019-03-05T05:24:23.469Z,50.00
2019-03-05T05:26:53.849Z,61.10
2019-03-05T05:29:24.211Z,69.60
2019-03-05T05:31:54.574Z,76.20
2019-03-05T05:34:24.930Z,71.90
2019-03-05T05:36:55.324Z,53.90
2019-03-05T05:40:01.586Z,56.70
2019-03-05T05:42:31.941Z,51.90
2019-03-05T05:45:02.371Z,66.30
2019-03-05T05:47:32.765Z,67.40
2019-03-05T05:50:03.114Z,53.40
2019-03-05T05:52:33.494Z,40.60
2019-03-05T05:55:03.947Z,40.10
2019-03-05T05:57:35.984Z,35.30
2019-03-05T06:00:08.766Z,26.80
2019-03-05T06:02:39.200Z,28.40
2019-03-05T06:05:09.697Z,35.40
2019-03-05T06:07:40.059Z,29.20
2019-03-05T06:10:10.858Z,22.50
2019-03-05T06:12:41.223Z,13.90
2019-03-05T06:15:11.808Z,5.40
2019-03-05T06:17:42.432Z,13.10
2019-03-05T06:20:13.506Z,8.60
2019-03-05T06:22:43.878Z,12.60
2019-03-05T06:25:14.639Z,1.00
2019-03-05T06:27:45.005Z,1.00
2019-03-05T06:30:16.107Z,1.00
2019-03-05T06:32:46.477Z,1.00
2019-03-05T06:35:16.821Z,1.00
2019-03-05T06:37:47.201Z,1.00
2019-03-05T06:40:17.687Z,1.00
2019-03-05T06:42:48.069Z,1.00
2019-03-05T06:45:18.542Z,7.60
2019-03-05T06:47:48.940Z,11.00
2019-03-05T06:50:19.338Z,3.30
2019-03-05T06:52:49.694Z,6.90
2019-03-05T06:55:20.169Z,1.00
2019-03-05T06:57:50.550Z,1.00
2019-03-05T07:00:43.304Z,5.60
2019-03-05T07:03:13.693Z,1.00
2019-03-05T07:06:19.689Z,1.00
2019-03-05T07:09:10.349Z,6.60
2019-03-05T07:12:31.017Z,1.00
2019-03-05T07:15:30.740Z,1.00
2019-03-05T07:18:09.036Z,1.00
2019-03-05T07:20:56.934Z,1.00
2019-03-05T07:23:58.087Z,1.00
2019-03-05T07:26:28.441Z,1.00
2019-03-05T07:28:58.817Z,1.00
2019-03-05T07:31:29.218Z,1.00
2019-03-05T07:33:59.586Z,1.00
2019-03-05T07:36:29.942Z,1.00
2019-03-05T07:39:00.308Z,1.00
2019-03-05T07:41:30.673Z,1.00
2019-03-05T07:44:01.050Z,1.00
2019-03-05T07:46:31.445Z,1.00
2019-03-05T07:49:01.861Z,1.00
2019-03-05T07:51:32.250Z,1.00
2019-03-05T07:54:02.656Z,1.00
2019-03-05T07:56:33.042Z,1.00
2019-03-05T07:59:03.427Z,1.00
2019-03-05T08:01:33.803Z,1.00
2019-03-05T08:04:04.153Z,1.00
2019-03-05T08:06:34.554Z,1.00
2019-03-05T08:09:29.102Z,1.00
2019-03-05T08:12:30.054Z,99.90
2019-03-05T08:15:14.299Z,99.90
2019-03-05T08:17:46.894Z,99.90
2019-03-05T08:20:16.763Z,99.90
2019-03-05T08:22:47.163Z,99.90
2019-03-05T08:25:17.542Z,99.90
2019-03-05T08:27:50.614Z,1.00
2019-03-05T08:30:20.210Z,99.90
2019-03-05T08:32:50.622Z,1.00
2019-03-05T08:35:21.013Z,1.00
2019-03-05T08:37:51.413Z,99.90
2019-03-05T08:40:21.770Z,99.90
2019-03-05T08:42:52.166Z,1.00
2019-03-05T08:45:29.351Z,1.00
2019-03-05T08:47:54.612Z,99.90
2019-03-05T08:50:24.992Z,99.90
2019-03-05T08:52:55.383Z,99.90
2019-03-05T08:55:25.779Z,1.00
2019-03-05T08:57:56.264Z,99.90
2019-03-05T09:00:26.630Z,1.00
2019-03-05T09:02:57.046Z,99.90
2019-03-05T09:05:27.421Z,1.00
2019-03-05T09:07:57.848Z,99.90
2019-03-05T09:10:28.338Z,90.90
2019-03-05T09:12:58.691Z,99.90
2019-03-05T09:15:29.078Z,99.90
2019-03-05T09:17:59.425Z,88.20
2019-03-05T09:20:29.890Z,31.30
2019-03-05T09:23:00.241Z,1.20
2019-03-05T09:25:30.742Z,1.00
2019-03-05T09:28:01.085Z,1.00
2019-03-05T09:30:31.478Z,99.90
2019-03-05T09:33:01.932Z,99.90
2019-03-05T09:35:32.315Z,99.90
2019-03-05T09:38:02.741Z,99.90
2019-03-05T09:40:33.372Z,99.90
2019-03-05T09:43:03.837Z,1.00
2019-03-05T09:45:34.230Z,1.00
2019-03-05T09:48:04.598Z,1.00
2019-03-05T09:50:35.021Z,1.00
2019-03-05T09:53:06.165Z,1.00
2019-03-05T09:55:37.042Z,1.00
2019-03-05T09:58:08.742Z,1.00
2019-03-05T10:00:39.594Z,1.00
2019-03-05T10:03:09.953Z,1.00
2019-03-05T10:05:40.335Z,1.00
2019-03-05T10:08:11.030Z,1.00
2019-03-05T10:10:41.438Z,99.90
2019-03-05T10:13:13.326Z,99.90
2019-03-05T10:15:44.385Z,99.90
2019-03-05T10:18:14.829Z,99.90
2019-03-05T10:20:45.311Z,99.90
2019-03-05T10:23:15.665Z,99.90
2019-03-05T10:25:46.179Z,99.90
2019-03-05T10:28:16.655Z,99.90
2019-03-05T10:30:47.074Z,99.90
2019-03-05T10:33:18.894Z,99.90
2019-03-05T10:35:49.317Z,99.90
2019-03-05T10:38:19.698Z,99.90
2019-03-05T10:40:51.137Z,99.90
2019-03-05T10:43:21.941Z,99.90
2019-03-05T10:45:52.532Z,99.90
2019-03-05T10:48:23.272Z,99.90
2019-03-05T10:50:53.682Z,99.90
2019-03-05T10:53:24.097Z,99.90
2019-03-05T10:55:54.535Z,99.90
2019-03-05T10:58:33.426Z,99.90
2019-03-05T11:00:57.142Z,99.90
2019-03-05T11:03:29.761Z,99.90
2019-03-05T11:06:00.455Z,99.90
2019-03-05T11:08:30.867Z,99.90
2019-03-05T11:11:13.001Z,99.90
2019-03-05T11:13:34.792Z,99.90
2019-03-05T11:16:05.697Z,99.90
2019-03-05T11:18:37.783Z,99.90
2019-03-05T11:21:08.499Z,99.90
2019-03-05T11:23:38.942Z,99.90
2019-03-05T11:26:09.340Z,99.90
2019-03-05T11:28:39.831Z,99.90
2019-03-05T11:31:10.988Z,99.90
2019-03-05T11:33:41.412Z,99.90
2019-03-05T11:36:11.913Z,99.90
2019-03-05T11:38:42.361Z,1.00
2019-03-05T11:41:12.782Z,1.00
2019-03-05T11:43:43.221Z,1.00
2019-03-05T11:46:17.342Z,1.00
2019-03-05T11:48:47.749Z,1.00
2019-03-05T11:51:18.179Z,1.00
2019-03-05T11:53:48.877Z,1.00
2019-03-05T11:56:19.421Z,1.00
2019-03-05T11:58:49.866Z,1.00
2019-03-05T12:01:33.798Z,1.00
2019-03-05T12:04:04.340Z,1.00
2019-03-05T12:06:34.765Z,1.00
2019-03-05T12:09:06.685Z,1.00
2019-03-05T12:11:37.094Z,1.00
2019-03-05T12:14:07.483Z,1.00
2019-03-05T12:16:37.914Z,1.00
2019-03-05T12:19:08.383Z,1.00
2019-03-05T12:21:38.779Z,99.90
2019-03-05T12:24:09.216Z,76.30
2019-03-05T12:26:39.668Z,99.90
2019-03-05T12:29:10.084Z,1.00
2019-03-05T12:31:40.509Z,1.00
2019-03-05T12:34:10.917Z,99.90
2019-03-05T12:36:41.338Z,99.90
2019-03-05T12:39:13.359Z,99.90
2019-03-05T12:41:43.782Z,99.90
2019-03-05T12:44:14.171Z,99.90
2019-03-05T12:46:44.586Z,99.90
2019-03-05T12:49:17.019Z,99.90
2019-03-05T12:51:47.207Z,99.90
2019-03-05T12:54:17.590Z,99.90
2019-03-05T12:56:48.027Z,99.90
2019-03-05T12:59:18.400Z,99.90
2019-03-05T13:01:48.786Z,1.00
2019-03-05T13:04:19.730Z,99.90
2019-03-05T13:06:50.204Z,1.00
2019-03-05T13:09:20.630Z,1.00
2019-03-05T13:11:51.074Z,1.00
2019-03-05T13:14:21.579Z,1.00
2019-03-05T13:16:52.021Z,1.00
2019-03-05T13:19:22.504Z,99.90
2019-03-05T13:21:52.944Z,99.90
2019-03-05T13:24:23.386Z,99.90
2019-03-05T13:26:53.818Z,45.10
2019-03-05T13:29:24.278Z,99.90
2019-03-05T13:31:54.684Z,99.90
2019-03-05T13:34:25.113Z,99.90
2019-03-05T13:36:55.594Z,1.00
2019-03-05T13:39:25.987Z,1.00
2019-03-05T13:41:56.499Z,1.00
2019-03-05T13:44:36.468Z,1.00
2019-03-05T13:47:08.962Z,1.00
2019-03-05T13:50:08.755Z,1.00
2019-03-05T13:53:14.867Z,1.00
2019-03-05T13:56:08.302Z,1.00
2019-03-05T13:59:11.718Z,1.00
2019-03-05T14:01:56.488Z,1.00
2019-03-05T14:04:32.295Z,1.00
2019-03-05T14:07:52.690Z,1.00
2019-03-05T14:10:23.112Z,1.00
2019-03-05T14:12:53.469Z,1.00
2019-03-05T14:15:23.863Z,1.00
2019-03-05T14:17:54.322Z,1.00
2019-03-05T14:20:31.861Z,13.90
2019-03-05T14:22:56.877Z,21.90
2019-03-05T14:25:27.333Z,48.60
2019-03-05T14:27:57.716Z,32.80
2019-03-05T14:30:28.165Z,53.80
2019-03-05T14:33:00.762Z,52.00
2019-03-05T14:35:32.567Z,68.30
2019-03-05T14:38:03.816Z,81.30
2019-03-05T14:40:34.340Z,63.00
2019-03-05T14:43:06.666Z,77.00
2019-03-05T14:45:37.680Z,71.20
2019-03-05T14:48:08.259Z,83.70
2019-03-05T14:50:38.957Z,62.40
2019-03-05T14:53:09.438Z,58.90
2019-03-05T14:55:39.889Z,80.50
2019-03-05T14:58:10.366Z,72.20
2019-03-05T15:00:40.889Z,73.70
2019-03-05T15:03:11.345Z,63.00
2019-03-05T15:05:41.769Z,69.60
2019-03-05T15:08:12.201Z,81.10
2019-03-05T15:10:42.659Z,59.80
2019-03-05T15:13:17.351Z,89.00
2019-03-05T15:15:45.174Z,69.20
2019-03-05T15:18:15.589Z,54.00
2019-03-05T15:20:46.054Z,66.30
2019-03-05T15:23:16.511Z,59.10
2019-03-05T15:25:46.888Z,51.00
2019-03-05T15:28:17.264Z,39.10
2019-03-05T15:30:47.638Z,35.40
2019-03-05T15:33:18.132Z,42.30
2019-03-05T15:35:48.580Z,45.60
2019-03-05T15:38:19.057Z,40.60
2019-03-05T15:40:49.536Z,30.40
2019-03-05T15:43:19.966Z,32.90
2019-03-05T15:45:50.501Z,35.90
2019-03-05T15:48:20.893Z,42.80
2019-03-05T15:50:51.272Z,36.70
2019-03-05T15:53:21.747Z,30.60
2019-03-05T15:55:52.250Z,25.30
2019-03-05T15:58:22.631Z,19.70
2019-03-05T16:00:53.090Z,17.90
2019-03-05T16:03:23.476Z,21.40
2019-03-05T16:05:57.386Z,27.80
2019-03-05T16:08:26.251Z,25.80
2019-03-05T16:10:58.659Z,18.50
2019-03-05T16:13:28.910Z,5.30
2019-03-05T16:15:59.303Z,15.70
2019-03-05T16:18:29.705Z,1.00
2019-03-05T16:21:02.469Z,26.00
2019-03-05T16:23:32.229Z,49.40
2019-03-05T16:26:02.699Z,57.40
2019-03-05T16:28:33.162Z,40.60
2019-03-05T16:31:14.919Z,64.30
2019-03-05T16:34:09.497Z,57.70
2019-03-05T16:36:54.516Z,53.90
2019-03-05T16:39:46.323Z,69.80
2019-03-05T16:42:41.921Z,80.30
2019-03-05T16:45:34.006Z,85.60
2019-03-05T16:48:32.807Z,70.90
2019-03-05T16:51:31.244Z,88.10
2019-03-05T16:54:26.182Z,93.70
2019-03-05T16:57:33.760Z,90.50
2019-03-05T17:00:19.245Z,91.60
2019-03-05T17:03:26.577Z,98.20
2019-03-05T17:06:08.679Z,91.00
2019-03-05T17:09:01.102Z,97.80
2019-03-05T17:11:48.852Z,99.90
2019-03-05T17:14:19.358Z,99.90
2019-03-05T17:16:49.725Z,99.90
2019-03-05T17:19:20.282Z,99.40
2019-03-05T17:21:52.880Z,99.90
2019-03-05T17:24:22.755Z,99.90
2019-03-05T17:26:53.175Z,99.90
2019-03-05T17:29:23.562Z,99.90
2019-03-05T17:31:54.003Z,99.90
2019-03-05T17:34:24.660Z,99.90
2019-03-05T17:36:55.141Z,99.90
2019-03-05T17:39:26.310Z,99.90
2019-03-05T17:41:56.697Z,99.90
2019-03-05T17:44:27.119Z,99.90
2019-03-05T17:46:57.542Z,99.90
2019-03-05T17:49:27.945Z,99.90
2019-03-05T17:51:58.388Z,99.90
2019-03-05T17:54:28.825Z,99.90
2019-03-05T17:56:59.372Z,99.90
2019-03-05T17:59:29.820Z,99.90
2019-03-05T18:02:00.247Z,99.90
2019-03-05T18:04:30.634Z,99.90
2019-03-05T18:07:01.326Z,99.90
2019-03-05T18:09:31.921Z,99.90
2019-03-05T18:12:02.333Z,99.90
2019-03-05T18:14:32.774Z,99.90
2019-03-05T18:17:03.250Z,99.90
2019-03-05T18:19:33.659Z,99.90
2019-03-05T18:22:04.119Z,99.90
2019-03-05T18:24:34.573Z,99.90
2019-03-05T18:27:05.066Z,99.90
2019-03-05T18:29:35.846Z,99.20
2019-03-05T18:32:06.226Z,99.90
2019-03-05T18:34:36.625Z,99.90
2019-03-05T18:37:07.038Z,99.90
2019-03-05T18:39:37.544Z,98.80
2019-03-05T18:42:08.095Z,96.40
2019-03-05T18:44:38.481Z,96.80
2019-03-05T18:47:08.904Z,94.90
2019-03-05T18:49:39.345Z,98.70
2019-03-05T18:52:10.164Z,96.80
2019-03-05T18:54:40.599Z,98.30
2019-03-05T18:57:11.006Z,93.60
2019-03-05T18:59:41.525Z,93.40
2019-03-05T19:02:11.939Z,95.60
2019-03-05T19:04:42.346Z,99.90
2019-03-05T19:07:12.754Z,99.90
2019-03-05T19:09:43.275Z,97.80
2019-03-05T19:12:13.666Z,99.20
2019-03-05T19:14:44.141Z,99.90
2019-03-05T19:17:14.502Z,99.90
2019-03-05T19:19:44.966Z,99.90
2019-03-05T19:22:15.419Z,99.90
2019-03-05T19:24:45.857Z,99.90
2019-03-05T19:27:25.686Z,99.90
2019-03-05T19:29:48.339Z,99.90
2019-03-05T19:32:18.726Z,99.90
2019-03-05T19:34:49.879Z,99.90
2019-03-05T19:37:20.288Z,99.90
2019-03-05T19:39:50.715Z,99.90
2019-03-05T19:42:21.208Z,99.90
2019-03-05T19:44:51.670Z,99.90
2019-03-05T19:47:22.365Z,99.90
2019-03-05T19:49:52.875Z,99.90
2019-03-05T19:52:23.393Z,99.90
2019-03-05T19:54:53.870Z,99.90
2019-03-05T19:57:24.397Z,99.90
2019-03-05T19:59:54.866Z,99.90
2019-03-05T20:02:25.357Z,99.90
2019-03-05T20:04:55.757Z,99.90
2019-03-05T20:07:26.242Z,99.70
2019-03-05T20:09:58.415Z,99.20
2019-03-05T20:12:28.939Z,98.60
2019-03-05T20:14:59.386Z,98.00
2019-03-05T20:17:29.888Z,95.30
2019-03-05T20:20:00.656Z,98.40
2019-03-05T20:22:31.095Z,93.70
2019-03-05T20:25:01.579Z,91.90
2019-03-05T20:27:32.032Z,90.90
2019-03-05T20:30:02.623Z,89.80
2019-03-05T20:32:33.108Z,92.40
2019-03-05T20:35:03.558Z,91.90
2019-03-05T20:37:34.126Z,87.80
2019-03-05T20:40:04.720Z,93.70
2019-03-05T20:42:35.814Z,89.40
2019-03-05T20:45:11.219Z,93.00
2019-03-05T20:47:41.877Z,92.00
2019-03-05T20:50:13.181Z,90.60
2019-03-05T20:52:44.943Z,78.70
2019-03-05T20:55:17.087Z,71.60
2019-03-05T20:57:47.625Z,91.70
2019-03-05T21:00:29.002Z,96.90
2019-03-05T21:03:01.540Z,98.10
2019-03-05T21:05:34.570Z,95.00
2019-03-05T21:08:05.109Z,99.90
2019-03-05T21:10:35.654Z,99.90
2019-03-05T21:13:06.282Z,99.90
2019-03-05T21:15:37.162Z,99.90
2019-03-05T21:18:07.992Z,99.90
2019-03-05T21:20:41.367Z,99.90
2019-03-05T21:23:11.821Z,99.90
2019-03-05T21:25:42.465Z,99.90
2019-03-05T21:28:12.960Z,99.90
2019-03-05T21:30:43.454Z,99.90
2019-03-05T21:33:13.856Z,99.90
2019-03-05T21:35:44.430Z,99.90
2019-03-05T21:38:14.951Z,99.90
2019-03-05T21:40:45.408Z,99.90
2019-03-05T21:43:15.917Z,99.90
2019-03-05T21:45:46.455Z,99.90
2019-03-05T21:48:16.924Z,99.90
2019-03-05T21:50:47.391Z,99.90
2019-03-05T21:53:17.848Z,99.90
2019-03-05T21:55:48.358Z,99.90
2019-03-05T21:58:19.349Z,99.90
2019-03-05T22:00:49.798Z,99.80
2019-03-05T22:03:20.343Z,99.90
2019-03-05T22:05:50.774Z,99.90
2019-03-05T22:08:21.539Z,99.90
2019-03-05T22:10:52.101Z,99.90
2019-03-05T22:13:22.891Z,99.90
2019-03-05T22:15:53.398Z,99.90
2019-03-05T22:18:23.880Z,99.90
2019-03-05T22:20:54.331Z,99.90
2019-03-05T22:23:25.856Z,99.90
2019-03-05T22:25:56.338Z,99.90
2019-03-05T22:28:26.788Z,99.90
2019-03-05T22:30:57.523Z,99.90
2019-03-05T22:33:27.921Z,99.90
2019-03-05T22:35:58.443Z,99.90
2019-03-05T22:38:28.834Z,99.90
2019-03-05T22:40:59.283Z,99.90
2019-03-05T22:43:29.808Z,99.90
2019-03-05T22:46:00.249Z,99.90
2019-03-05T22:48:30.729Z,99.90
2019-03-05T22:51:01.259Z,99.90
2019-03-05T22:53:31.783Z,99.90
2019-03-05T22:56:02.364Z,99.90
2019-03-05T22:58:32.855Z,99.90
2019-03-05T23:01:19.516Z,99.90
2019-03-05T23:03:53.584Z,99.90
2019-03-05T23:06:24.165Z,99.90
2019-03-05T23:08:54.714Z,99.90
2019-03-05T23:11:25.574Z,99.90
2019-03-05T23:13:56.018Z,99.90
2019-03-05T23:16:26.419Z,99.90
2019-03-05T23:18:56.865Z,99.50
2019-03-05T23:21:27.495Z,99.50
2019-03-05T23:23:57.983Z,99.90
2019-03-05T23:26:28.610Z,98.60
2019-03-05T23:28:59.122Z,97.00
2019-03-05T23:31:29.883Z,98.70
2019-03-05T23:34:00.339Z,99.20
2019-03-05T23:36:30.845Z,99.60
2019-03-05T23:39:01.284Z,97.40
2019-03-05T23:41:31.716Z,94.50
2019-03-05T23:44:02.159Z,93.50
2019-03-05T23:46:32.586Z,91.10
2019-03-05T23:49:02.980Z,90.80
2019-03-05T23:51:33.461Z,92.20
2019-03-05T23:54:03.914Z,90.90
2019-03-05T23:56:34.323Z,91.60
2019-03-05T23:59:04.799Z,93.20
